createdAt,value
2022-11-07T07:20:42.871Z,6.33
2022-11-07T07:23:20.379Z,6.31
2022-11-07T07:25:58.508Z,6.32
2022-11-07T07:28:37.495Z,6.32
2022-11-07T07:31:26.053Z,6.36
2022-11-07T07:34:02.929Z,6.39
2022-11-07T07:36:42.548Z,6.39
2022-11-07T07:39:19.238Z,6.42
2022-11-07T07:41:56.316Z,6.45
2022-11-07T07:44:34.176Z,6.47
2022-11-07T07:47:11.707Z,6.50
2022-11-07T07:49:48.665Z,6.52
2022-11-07T07:52:28.422Z,6.58
2022-11-07T07:55:05.362Z,6.60
2022-11-07T07:57:44.787Z,6.61
2022-11-07T08:00:22.693Z,6.63
2022-11-07T08:03:07.391Z,6.64
2022-11-07T08:05:44.427Z,6.68
2022-11-07T08:08:24.877Z,6.70
2022-11-07T08:11:06.845Z,6.77
2022-11-07T08:13:44.037Z,6.77
2022-11-07T08:16:21.119Z,6.81
2022-11-07T08:18:58.283Z,6.78
2022-11-07T08:21:35.011Z,6.82
2022-11-07T08:24:16.684Z,6.85
2022-11-07T08:26:53.444Z,6.86
2022-11-07T08:29:30.574Z,6.88
2022-11-07T08:32:07.572Z,6.91
2022-11-07T08:34:44.702Z,6.92
2022-11-07T08:37:21.413Z,6.95
2022-11-07T08:40:01.561Z,6.93
2022-11-07T08:42:38.249Z,6.93
2022-11-07T08:48:06.022Z,6.99
2022-11-07T08:50:43.314Z,6.98
2022-11-07T08:53:20.188Z,7.00
2022-11-07T08:56:05.867Z,7.10
2022-11-07T08:58:42.630Z,7.07
2022-11-07T09:01:19.834Z,7.15
2022-11-07T09:03:58.273Z,7.20
2022-11-07T09:06:36.236Z,7.26
2022-11-07T09:09:16.640Z,7.27
2022-11-07T09:11:56.720Z,7.33
2022-11-07T09:14:33.472Z,7.37
2022-11-07T09:17:10.530Z,7.47
2022-11-07T09:19:47.275Z,7.51
2022-11-07T09:22:24.701Z,7.60
2022-11-07T09:25:01.463Z,7.65
2022-11-07T09:27:41.371Z,7.71
2022-11-07T09:30:18.588Z,7.74
2022-11-07T09:32:59.630Z,7.81
2022-11-07T09:35:36.359Z,7.87
2022-11-07T09:38:14.886Z,7.89
2022-11-07T09:41:00.612Z,7.95
2022-11-07T09:44:13.330Z,8.05
2022-11-07T09:47:02.933Z,8.10
2022-11-07T09:49:44.504Z,8.19
2022-11-07T09:52:29.251Z,8.25
2022-11-07T09:55:16.389Z,8.29
2022-11-07T09:57:55.806Z,8.29
2022-11-07T10:00:37.256Z,8.40
2022-11-07T10:03:14.678Z,8.55
2022-11-07T10:06:02.605Z,8.67
2022-11-07T10:08:44.847Z,8.87
2022-11-07T10:11:36.951Z,9.09
2022-11-07T10:14:26.856Z,9.38
2022-11-07T10:17:17.811Z,9.64
2022-11-07T10:20:19.267Z,9.97
2022-11-07T10:23:15.995Z,10.14
2022-11-07T10:25:56.250Z,10.45
2022-11-07T10:28:35.422Z,10.55
2022-11-07T10:31:16.312Z,10.67
2022-11-07T10:34:00.029Z,10.81
2022-11-07T10:36:37.370Z,10.81
2022-11-07T10:39:20.306Z,10.98
2022-11-07T10:42:05.540Z,11.13
2022-11-07T10:44:45.490Z,11.10
2022-11-07T10:47:25.579Z,11.19
2022-11-07T10:50:19.823Z,11.19
2022-11-07T10:52:58.505Z,11.16
2022-11-07T10:55:46.741Z,11.13
2022-11-07T10:58:26.520Z,11.11
2022-11-07T11:01:08.625Z,11.07
2022-11-07T11:03:49.912Z,11.06
2022-11-07T11:06:34.132Z,11.09
2022-11-07T11:12:34.269Z,10.99
2022-11-07T11:15:16.921Z,11.03
2022-11-07T11:18:05.590Z,11.00
2022-11-07T11:20:47.011Z,10.95
2022-11-07T11:23:29.235Z,10.91
2022-11-07T11:26:11.111Z,10.78
2022-11-07T11:28:53.133Z,10.79
2022-11-07T11:31:38.133Z,10.73
2022-11-07T11:34:22.530Z,10.72
2022-11-07T11:37:08.422Z,10.71
2022-11-07T11:39:54.274Z,10.78
2022-11-07T11:42:40.381Z,10.73
2022-11-07T11:45:22.785Z,10.70
2022-11-07T11:48:08.900Z,10.73
2022-11-07T11:50:52.697Z,10.70
2022-11-07T11:53:30.819Z,10.65
2022-11-07T11:56:29.572Z,10.63
2022-11-07T11:59:35.950Z,10.64
2022-11-07T12:02:50.859Z,10.70
2022-11-07T12:05:48.732Z,10.72
2022-11-07T12:08:42.993Z,10.87
2022-11-07T12:11:30.721Z,11.11
2022-11-07T12:14:33.141Z,11.34
2022-11-07T12:17:18.419Z,11.45
2022-11-07T12:20:06.085Z,11.62
2022-11-07T12:22:58.848Z,11.56
2022-11-07T12:25:43.743Z,11.48
2022-11-07T12:28:45.972Z,11.54
2022-11-07T12:31:46.581Z,11.52
2022-11-07T12:34:37.954Z,11.53
2022-11-07T12:37:45.722Z,11.54
2022-11-07T12:40:38.301Z,11.54
2022-11-07T12:43:33.500Z,11.61
2022-11-07T12:46:29.140Z,11.63
2022-11-07T12:49:54.295Z,11.57
2022-11-07T12:52:52.967Z,11.47
2022-11-07T12:55:40.282Z,11.44
2022-11-07T12:58:21.547Z,11.34
2022-11-07T13:00:59.370Z,11.26
2022-11-07T13:04:03.023Z,11.26
2022-11-07T13:06:47.317Z,11.26
2022-11-07T13:09:34.681Z,11.29
2022-11-07T13:12:24.382Z,11.29
2022-11-07T13:15:02.159Z,11.27
2022-11-07T13:17:44.941Z,11.20
2022-11-07T13:20:35.954Z,11.24
2022-11-07T13:23:19.965Z,11.23
2022-11-07T13:26:14.872Z,11.22
2022-11-07T13:29:04.901Z,11.22
2022-11-07T13:31:45.933Z,11.17
2022-11-07T13:34:29.858Z,11.15
2022-11-07T13:37:10.503Z,11.10
2022-11-07T13:39:50.182Z,11.08
2022-11-07T13:42:33.251Z,11.07
2022-11-07T13:45:28.219Z,11.06
2022-11-07T13:48:13.601Z,11.03
2022-11-07T13:51:01.212Z,11.06
2022-11-07T13:53:55.381Z,11.07
2022-11-07T13:56:37.181Z,11.02
2022-11-07T13:59:29.501Z,11.00
2022-11-07T14:02:07.932Z,11.04
2022-11-07T14:05:15.344Z,11.00
2022-11-07T14:07:54.860Z,11.00
2022-11-07T14:10:41.782Z,11.02
2022-11-07T14:13:26.801Z,10.95
2022-11-07T14:16:07.543Z,10.96
2022-11-07T14:18:50.339Z,10.92
2022-11-07T14:21:32.072Z,10.88
2022-11-07T14:24:28.664Z,10.87
2022-11-07T14:27:11.072Z,10.83
2022-11-07T14:29:55.789Z,10.82
2022-11-07T14:32:33.131Z,10.77
2022-11-07T14:35:12.970Z,10.79
2022-11-07T14:37:50.711Z,10.73
2022-11-07T14:40:30.115Z,10.70
2022-11-07T14:43:10.431Z,10.72
2022-11-07T14:48:47.860Z,10.63
2022-11-07T14:51:29.073Z,10.60
2022-11-07T14:54:12.597Z,10.61
2022-11-07T14:56:55.899Z,10.55
2022-11-07T14:59:36.454Z,10.53
2022-11-07T15:02:30.908Z,10.52
2022-11-07T15:05:11.267Z,10.49
2022-11-07T15:07:52.841Z,10.47
2022-11-07T15:10:35.981Z,10.42
2022-11-07T15:13:27.931Z,10.38
2022-11-07T15:16:11.229Z,10.35
2022-11-07T15:18:51.981Z,10.29
2022-11-07T15:21:34.963Z,10.31
2022-11-07T15:24:36.044Z,10.20
2022-11-07T15:27:25.932Z,10.20
2022-11-07T15:30:05.368Z,10.13
2022-11-07T15:32:46.404Z,10.14
2022-11-07T15:38:24.102Z,10.06
2022-11-07T15:41:01.001Z,10.00
2022-11-07T15:43:38.261Z,10.00
2022-11-07T15:46:28.140Z,9.92
2022-11-07T15:49:08.791Z,9.92
2022-11-07T15:51:45.552Z,9.88
2022-11-07T15:54:22.773Z,9.84
2022-11-07T15:57:05.700Z,9.84
2022-11-07T15:59:44.002Z,9.81
2022-11-07T16:02:22.030Z,9.84
2022-11-07T16:05:02.223Z,9.82
2022-11-07T16:07:39.502Z,9.79
2022-11-07T16:10:25.494Z,9.79
2022-11-07T16:13:05.166Z,9.77
2022-11-07T16:15:45.663Z,9.78
2022-11-07T16:18:24.481Z,9.81
2022-11-07T16:21:04.391Z,9.82
2022-11-07T16:23:42.673Z,9.83
2022-11-07T16:26:26.960Z,9.83
2022-11-07T16:29:04.343Z,9.87
2022-11-07T16:31:41.635Z,9.88
2022-11-07T16:34:18.732Z,9.92
2022-11-07T16:36:58.792Z,9.97
2022-11-07T16:39:35.693Z,9.97
2022-11-07T16:42:17.043Z,9.99
2022-11-07T16:44:54.132Z,10.00
2022-11-07T16:47:34.911Z,10.02
2022-11-07T16:50:16.496Z,10.06
2022-11-07T16:52:56.842Z,10.06
2022-11-07T16:55:36.473Z,10.11
2022-11-07T16:58:28.284Z,10.11
2022-11-07T17:01:08.983Z,10.07
2022-11-07T17:03:46.572Z,10.02
2022-11-07T17:06:30.526Z,10.05
2022-11-07T17:09:13.668Z,10.07
2022-11-07T17:11:51.082Z,10.02
2022-11-07T17:14:28.895Z,10.02
2022-11-07T17:17:06.082Z,10.03
2022-11-07T17:19:43.929Z,10.01
2022-11-07T17:22:22.714Z,10.03
2022-11-07T17:25:03.243Z,10.07
2022-11-07T17:27:41.479Z,10.04
2022-11-07T17:30:21.810Z,10.07
2022-11-07T17:33:00.499Z,10.14
2022-11-07T17:35:41.480Z,10.16
2022-11-07T17:38:20.948Z,10.17
2022-11-07T17:41:17.756Z,10.23
2022-11-07T17:43:55.190Z,10.22
2022-11-07T17:46:35.252Z,10.32
2022-11-07T17:49:17.648Z,10.36
2022-11-07T17:51:57.441Z,10.37
2022-11-07T17:54:35.190Z,10.38
2022-11-07T17:57:17.241Z,10.43
2022-11-07T17:59:54.743Z,10.39
2022-11-07T18:02:33.851Z,10.45
2022-11-07T18:05:17.267Z,10.51
2022-11-07T18:07:58.193Z,10.51
2022-11-07T18:10:38.281Z,10.50
2022-11-07T18:13:20.618Z,10.56
2022-11-07T18:15:59.045Z,10.58
2022-11-07T18:18:39.522Z,10.58
2022-11-07T18:21:18.801Z,10.53
2022-11-07T18:23:57.671Z,10.54
2022-11-07T18:26:40.166Z,10.51
2022-11-07T18:29:27.038Z,10.50
2022-11-07T18:32:04.541Z,10.48
2022-11-07T18:34:44.322Z,10.50
2022-11-07T18:37:22.142Z,10.49
2022-11-07T18:40:07.451Z,10.48
2022-11-07T18:42:51.385Z,10.47
2022-11-07T18:45:32.914Z,10.45
2022-11-07T18:48:10.431Z,10.47
2022-11-07T18:50:48.060Z,10.45
2022-11-07T18:53:25.947Z,10.43
2022-11-07T18:56:11.854Z,10.43
2022-11-07T18:58:50.147Z,10.43
2022-11-07T19:01:34.390Z,10.45
2022-11-07T19:04:12.456Z,10.42
2022-11-07T19:06:58.991Z,10.43
2022-11-07T19:09:37.706Z,10.43
2022-11-07T19:12:16.158Z,10.43
2022-11-07T19:14:53.878Z,10.42
2022-11-07T19:17:34.726Z,10.43
2022-11-07T19:20:14.706Z,10.42
2022-11-07T19:22:53.527Z,10.38
2022-11-07T19:25:31.508Z,10.40
2022-11-07T19:28:10.154Z,10.37
2022-11-07T19:30:48.217Z,10.35
2022-11-07T19:33:28.907Z,10.31
2022-11-07T19:36:09.916Z,10.30
2022-11-07T19:38:48.149Z,10.27
2022-11-07T19:41:26.278Z,10.26
2022-11-07T19:44:07.601Z,10.28
2022-11-07T19:46:50.306Z,10.26
2022-11-07T19:49:41.436Z,10.26
2022-11-07T19:52:24.509Z,10.22
2022-11-07T19:55:07.122Z,10.21
2022-11-07T19:57:47.536Z,10.18
2022-11-07T20:00:27.071Z,10.20
2022-11-07T20:03:04.853Z,10.20
2022-11-07T20:05:50.997Z,10.22
2022-11-07T20:08:28.779Z,10.23
2022-11-07T20:11:07.109Z,10.27
2022-11-07T20:13:46.500Z,10.23
2022-11-07T20:16:27.036Z,10.26
2022-11-07T20:19:08.188Z,10.28
2022-11-07T20:21:54.537Z,10.32
2022-11-07T20:24:32.283Z,10.33
2022-11-07T20:27:10.777Z,10.35
2022-11-07T20:29:48.347Z,10.38
2022-11-07T20:32:37.728Z,10.43
2022-11-07T20:35:14.978Z,10.45
2022-11-07T20:37:55.664Z,10.47
